Terminal Aerodrome Forecast
Issued by NWS Cleveland, OH

Home | Current Version | Previous Version | Graphics & Text | Print | Product List | Glossary Off
Versions: 1 2 3 4 5 6 7 8 9 10 11 12 13 14 15 16 17 18

000
FTUS41 KCLE 190500
TAFMFD
TAF
KMFD 190520Z 1906/2006 06003KT P6SM SKC
     FM190900 08003KT 6SM BR SKC
      TEMPO 1910/1913 4SM BR
     FM191330 10005KT P6SM SKC
     FM191600 12007KT P6SM SCT045
     FM200000 VRB03KT P6SM SKC
     FM200400 17008KT P6SM SKC=

USA.gov is the U.S. government's official web portal to all federal, state and local government web resources and services.